sensor_id;sensor_type;location;lat;lon;timestamp;pressure;altitude;pressure_sealevel;temperature;humidity
19789;BME280;10054;59.332;18.244;2023-01-16T00:00:00;97186.94;;;3.58;100.00
19789;BME280;10054;59.332;18.244;2023-01-16T00:02:30;97188.59;;;3.59;100.00
19789;BME280;10054;59.332;18.244;2023-01-16T00:05:00;97182.21;;;3.67;100.00
19789;BME280;10054;59.332;18.244;2023-01-16T00:07:29;97183.38;;;3.69;100.00
19789;BME280;10054;59.332;18.244;2023-01-16T00:09:57;97179.73;;;3.66;100.00
19789;BME280;10054;59.332;18.244;2023-01-16T00:12:26;97180.84;;;3.63;100.00
19789;BME280;10054;59.332;18.244;2023-01-16T00:14:55;97178.36;;;3.61;100.00
19789;BME280;10054;59.332;18.244;2023-01-16T00:17:23;97173.77;;;3.59;100.00
19789;BME280;10054;59.332;18.244;2023-01-16T00:19:52;97175.42;;;3.60;100.00
19789;BME280;10054;59.332;18.244;2023-01-16T00:22:21;97181.45;;;3.61;100.00
19789;BME280;10054;59.332;18.244;2023-01-16T00:24:50;97181.45;;;3.61;100.00
19789;BME280;10054;59.332;18.244;2023-01-16T00:27:18;97177.55;;;3.61;100.00
19789;BME280;10054;59.332;18.244;2023-01-16T00:29:47;97181.45;;;3.61;100.00
19789;BME280;10054;59.332;18.244;2023-01-16T00:32:16;97181.45;;;3.61;100.00
19789;BME280;10054;59.332;18.244;2023-01-16T00:34:44;97177.06;;;3.61;100.00
19789;BME280;10054;59.332;18.244;2023-01-16T00:37:14;97178.02;;;3.60;100.00
19789;BME280;10054;59.332;18.244;2023-01-16T00:39:43;97181.45;;;3.61;100.00
19789;BME280;10054;59.332;18.244;2023-01-16T00:42:11;97181.94;;;3.60;100.00
19789;BME280;10054;59.332;18.244;2023-01-16T00:44:40;97181.59;;;3.59;100.00
19789;BME280;10054;59.332;18.244;2023-01-16T00:47:09;97178.98;;;3.59;100.00
19789;BME280;10054;59.332;18.244;2023-01-16T00:49:38;97182.89;;;3.59;100.00
19789;BME280;10054;59.332;18.244;2023-01-16T00:52:07;97189.41;;;3.59;100.00
19789;BME280;10054;59.332;18.244;2023-01-16T00:54:36;97191.53;;;3.60;100.00
19789;BME280;10054;59.332;18.244;2023-01-16T00:57:05;97180.28;;;3.59;100.00
19789;BME280;10054;59.332;18.244;2023-01-16T00:59:33;97192.49;;;3.59;100.00
19789;BME280;10054;59.332;18.244;2023-01-16T01:02:02;97195.09;;;3.59;100.00
19789;BME280;10054;59.332;18.244;2023-01-16T01:04:31;97199.01;;;3.59;100.00
19789;BME280;10054;59.332;18.244;2023-01-16T01:07:00;97201.95;;;3.60;100.00
19789;BME280;10054;59.332;18.244;2023-01-16T01:09:30;97200.31;;;3.59;100.00
19789;BME280;10054;59.332;18.244;2023-01-16T01:11:59;97202.58;;;3.58;100.00
19789;BME280;10054;59.332;18.244;2023-01-16T01:14:28;97203.95;;;3.62;100.00
19789;BME280;10054;59.332;18.244;2023-01-16T01:16:57;97197.44;;;3.62;100.00
19789;BME280;10054;59.332;18.244;2023-01-16T01:19:26;97205.87;;;3.60;100.00
19789;BME280;10054;59.332;18.244;2023-01-16T01:21:55;97209.22;;;3.56;100.00
19789;BME280;10054;59.332;18.244;2023-01-16T01:24:24;97205.11;;;3.54;100.00
19789;BME280;10054;59.332;18.244;2023-01-16T01:26:53;97203.59;;;3.51;100.00
19789;BME280;10054;59.332;18.244;2023-01-16T01:29:22;97217.92;;;3.51;100.00
19789;BME280;10054;59.332;18.244;2023-01-16T01:31:51;97207.02;;;3.52;100.00
19789;BME280;10054;59.332;18.244;2023-01-16T01:34:20;97209.77;;;3.50;100.00
19789;BME280;10054;59.332;18.244;2023-01-16T01:36:49;97195.09;;;3.49;100.00
19789;BME280;10054;59.332;18.244;2023-01-16T01:39:18;97205.98;;;3.49;100.00
19789;BME280;10054;59.332;18.244;2023-01-16T01:41:47;97211.69;;;3.48;100.00
19789;BME280;10054;59.332;18.244;2023-01-16T01:44:53;97207.77;;;3.48;100.00
19789;BME280;10054;59.332;18.244;2023-01-16T01:47:30;97215.45;;;3.50;100.00
19789;BME280;10054;59.332;18.244;2023-01-16T01:49:55;97218.06;;;3.50;100.00
19789;BME280;10054;59.332;18.244;2023-01-16T01:52:27;97220.67;;;3.50;100.00
19789;BME280;10054;59.332;18.244;2023-01-16T01:55:05;97219.36;;;3.50;100.00
19789;BME280;10054;59.332;18.244;2023-01-16T01:57:46;97227.53;;;3.51;100.00
19789;BME280;10054;59.332;18.244;2023-01-16T02:00:18;97214.63;;;3.49;100.00
19789;BME280;10054;59.332;18.244;2023-01-16T02:02:51;97216.97;;;3.52;100.00
19789;BME280;10054;59.332;18.244;2023-01-16T02:05:22;97223.48;;;3.52;100.00
19789;BME280;10054;59.332;18.244;2023-01-16T02:07:51;97215.32;;;3.51;100.00
19789;BME280;10054;59.332;18.244;2023-01-16T02:10:30;97227.26;;;3.54;100.00
19789;BME280;10054;59.332;18.244;2023-01-16T02:12:58;97223.21;;;3.55;100.00
19789;BME280;10054;59.332;18.244;2023-01-16T02:15:29;97220.47;;;3.57;100.00
19789;BME280;10054;59.332;18.244;2023-01-16T02:17:58;97222.12;;;3.58;100.00
19789;BME280;10054;59.332;18.244;2023-01-16T02:21:02;97228.64;;;3.58;100.00
19789;BME280;10054;59.332;18.244;2023-01-16T02:35:12;97246.11;;;3.52;100.00
19789;BME280;10054;59.332;18.244;2023-01-16T02:38:08;97247.89;;;3.51;100.00
19789;BME280;10054;59.332;18.244;2023-01-16T02:52:20;97266.88;;;3.48;100.00
19789;BME280;10054;59.332;18.244;2023-01-16T02:57:22;97263.11;;;3.46;100.00
19789;BME280;10054;59.332;18.244;2023-01-16T02:59:53;97262.58;;;3.52;100.00
19789;BME280;10054;59.332;18.244;2023-01-16T03:02:21;97265.73;;;3.56;100.00
19789;BME280;10054;59.332;18.244;2023-01-16T03:04:52;97267.65;;;3.54;100.00
19789;BME280;10054;59.332;18.244;2023-01-16T03:07:38;97264.63;;;3.49;100.00
19789;BME280;10054;59.332;18.244;2023-01-16T03:16:01;97281.40;;;3.41;100.00
19789;BME280;10054;59.332;18.244;2023-01-16T03:18:57;97270.28;;;3.39;100.00
19789;BME280;10054;59.332;18.244;2023-01-16T03:22:05;97273.72;;;3.39;100.00
19789;BME280;10054;59.332;18.244;2023-01-16T03:24:49;97275.97;;;3.38;100.00
19789;BME280;10054;59.332;18.244;2023-01-16T03:30:13;97287.14;;;3.35;100.00
19789;BME280;10054;59.332;18.244;2023-01-16T03:32:44;97289.74;;;3.35;100.00
19789;BME280;10054;59.332;18.244;2023-01-16T03:38:05;97305.51;;;3.33;100.00
19789;BME280;10054;59.332;18.244;2023-01-16T03:40:28;97297.00;;;3.31;100.00
19789;BME280;10054;59.332;18.244;2023-01-16T03:43:01;97299.26;;;3.30;100.00
19789;BME280;10054;59.332;18.244;2023-01-16T03:46:03;97306.38;;;3.28;100.00
19789;BME280;10054;59.332;18.244;2023-01-16T03:48:33;97311.94;;;3.29;100.00
19789;BME280;10054;59.332;18.244;2023-01-16T03:51:04;97314.20;;;3.28;100.00
19789;BME280;10054;59.332;18.244;2023-01-16T03:53:38;97324.14;;;3.28;100.00
19789;BME280;10054;59.332;18.244;2023-01-16T03:56:21;97313.23;;;3.29;100.00
19789;BME280;10054;59.332;18.244;2023-01-16T03:58:51;97319.75;;;3.29;100.00
19789;BME280;10054;59.332;18.244;2023-01-16T04:01:24;97317.63;;;3.28;100.00
19789;BME280;10054;59.332;18.244;2023-01-16T04:12:17;97347.36;;;3.26;100.00
19789;BME280;10054;59.332;18.244;2023-01-16T04:14:54;97351.88;;;3.24;100.00
19789;BME280;10054;59.332;18.244;2023-01-16T04:17:22;97363.86;;;3.21;100.00
19789;BME280;10054;59.332;18.244;2023-01-16T04:19:51;97357.61;;;3.18;100.00
19789;BME280;10054;59.332;18.244;2023-01-16T04:22:26;97363.20;;;3.13;100.00
19789;BME280;10054;59.332;18.244;2023-01-16T04:25:00;97370.32;;;3.11;100.00
19789;BME280;10054;59.332;18.244;2023-01-16T04:27:30;97365.81;;;3.13;100.00
19789;BME280;10054;59.332;18.244;2023-01-16T04:29:58;97377.62;;;3.17;100.00
19789;BME280;10054;59.332;18.244;2023-01-16T04:32:27;97375.62;;;3.15;100.00
19789;BME280;10054;59.332;18.244;2023-01-16T04:34:56;97379.44;;;3.11;100.00
19789;BME280;10054;59.332;18.244;2023-01-16T04:37:25;97390.36;;;3.05;100.00
19789;BME280;10054;59.332;18.244;2023-01-16T04:39:53;97402.59;;;2.99;100.00
19789;BME280;10054;59.332;18.244;2023-01-16T04:42:22;97393.54;;;2.93;100.00
19789;BME280;10054;59.332;18.244;2023-01-16T04:44:51;97398.66;;;2.89;100.00
19789;BME280;10054;59.332;18.244;2023-01-16T04:47:20;97404.94;;;2.87;100.00
19789;BME280;10054;59.332;18.244;2023-01-16T04:49:49;97401.16;;;2.85;100.00
19789;BME280;10054;59.332;18.244;2023-01-16T04:52:17;97406.02;;;2.84;100.00
19789;BME280;10054;59.332;18.244;2023-01-16T04:54:46;97418.20;;;2.84;100.00
19789;BME280;10054;59.332;18.244;2023-01-16T04:57:14;97411.83;;;2.82;100.00
19789;BME280;10054;59.332;18.244;2023-01-16T04:59:43;97422.71;;;2.82;100.00
19789;BME280;10054;59.332;18.244;2023-01-16T05:02:12;97431.13;;;2.80;100.00
19789;BME280;10054;59.332;18.244;2023-01-16T05:04:41;97432.07;;;2.79;100.00
19789;BME280;10054;59.332;18.244;2023-01-16T05:07:09;97431.84;;;2.76;100.00
19789;BME280;10054;59.332;18.244;2023-01-16T05:09:38;97429.84;;;2.74;100.00
19789;BME280;10054;59.332;18.244;2023-01-16T05:12:07;97436.35;;;2.74;100.00
19789;BME280;10054;59.332;18.244;2023-01-16T05:14:36;97448.54;;;2.74;100.00
19789;BME280;10054;59.332;18.244;2023-01-16T05:17:04;97449.02;;;2.73;100.00
19789;BME280;10054;59.332;18.244;2023-01-16T05:19:33;97449.84;;;2.74;100.00
19789;BME280;10054;59.332;18.244;2023-01-16T05:22:02;97460.25;;;2.74;100.00
19789;BME280;10054;59.332;18.244;2023-01-16T05:24:31;97466.28;;;2.74;100.00
19789;BME280;10054;59.332;18.244;2023-01-16T05:26:59;97458.95;;;2.74;100.00
19789;BME280;10054;59.332;18.244;2023-01-16T05:29:28;97467.59;;;2.74;100.00
19789;BME280;10054;59.332;18.244;2023-01-16T05:31:56;97473.14;;;2.75;100.00
19789;BME280;10054;59.332;18.244;2023-01-16T05:34:25;97478.70;;;2.76;100.00
19789;BME280;10054;59.332;18.244;2023-01-16T05:36:53;97485.08;;;2.78;100.00
19789;BME280;10054;59.332;18.244;2023-01-16T05:39:22;97482.95;;;2.77;100.00
19789;BME280;10054;59.332;18.244;2023-01-16T05:41:51;97488.64;;;2.77;100.00
19789;BME280;10054;59.332;18.244;2023-01-16T05:44:19;97505.67;;;2.75;100.00
19789;BME280;10054;59.332;18.244;2023-01-16T05:46:49;97504.15;;;2.73;100.00
19789;BME280;10054;59.332;18.244;2023-01-16T05:49:18;97516.11;;;2.70;100.00
19789;BME280;10054;59.332;18.244;2023-01-16T05:51:49;97531.49;;;2.67;100.00
19789;BME280;10054;59.332;18.244;2023-01-16T05:54:18;97525.11;;;2.66;100.00
19789;BME280;10054;59.332;18.244;2023-01-16T05:56:47;97530.43;;;2.64;100.00
19789;BME280;10054;59.332;18.244;2023-01-16T05:59:16;97533.86;;;2.64;100.00
19789;BME280;10054;59.332;18.244;2023-01-16T06:01:44;97538.58;;;2.71;100.00
19789;BME280;10054;59.332;18.244;2023-01-16T06:04:13;97539.64;;;2.74;100.00
19789;BME280;10054;59.332;18.244;2023-01-16T06:06:42;97545.80;;;2.73;100.00
19789;BME280;10054;59.332;18.244;2023-01-16T06:09:11;97551.23;;;2.70;100.00
19789;BME280;10054;59.332;18.244;2023-01-16T06:11:39;97556.92;;;2.69;100.00
19789;BME280;10054;59.332;18.244;2023-01-16T06:14:08;97555.39;;;2.67;100.00
19789;BME280;10054;59.332;18.244;2023-01-16T06:16:37;97565.45;;;2.66;100.00
19789;BME280;10054;59.332;18.244;2023-01-16T06:19:06;97568.17;;;2.64;100.00
19789;BME280;10054;59.332;18.244;2023-01-16T06:21:34;97582.12;;;2.63;100.00
19789;BME280;10054;59.332;18.244;2023-01-16T06:24:03;97583.91;;;2.62;100.00
19789;BME280;10054;59.332;18.244;2023-01-16T06:26:32;97585.67;;;2.62;100.00
19789;BME280;10054;59.332;18.244;2023-01-16T06:29:01;97593.61;;;2.60;100.00
19789;BME280;10054;59.332;18.244;2023-01-16T06:31:29;97604.48;;;2.60;100.00
19789;BME280;10054;59.332;18.244;2023-01-16T06:33:58;97598.22;;;2.57;100.00
19789;BME280;10054;59.332;18.244;2023-01-16T06:36:27;97601.77;;;2.56;100.00
19789;BME280;10054;59.332;18.244;2023-01-16T06:38:56;97606.73;;;2.53;100.00
19789;BME280;10054;59.332;18.244;2023-01-16T06:41:25;97613.95;;;2.50;100.00
19789;BME280;10054;59.332;18.244;2023-01-16T06:43:53;97622.95;;;2.46;100.00
19789;BME280;10054;59.332;18.244;2023-01-16T06:46:22;97622.70;;;2.43;100.00
19789;BME280;10054;59.332;18.244;2023-01-16T06:48:51;97625.43;;;2.42;100.00
19789;BME280;10054;59.332;18.244;2023-01-16T06:51:20;97640.33;;;2.40;100.00
19789;BME280;10054;59.332;18.244;2023-01-16T06:53:48;97640.20;;;2.36;100.00
19789;BME280;10054;59.332;18.244;2023-01-16T06:56:17;97642.45;;;2.29;100.00
19789;BME280;10054;59.332;18.244;2023-01-16T06:58:46;97647.88;;;2.26;100.00
19789;BME280;10054;59.332;18.244;2023-01-16T07:01:15;97661.13;;;2.23;100.00
19789;BME280;10054;59.332;18.244;2023-01-16T07:03:44;97656.89;;;2.22;100.00
19789;BME280;10054;59.332;18.244;2023-01-16T07:06:13;97668.45;;;2.23;100.00
19789;BME280;10054;59.332;18.244;2023-01-16T07:08:42;97671.53;;;2.28;100.00
19789;BME280;10054;59.332;18.244;2023-01-16T07:11:10;97674.85;;;2.36;100.00
19789;BME280;10054;59.332;18.244;2023-01-16T07:13:39;97675.44;;;2.34;100.00
19789;BME280;10054;59.332;18.244;2023-01-16T07:16:10;97678.27;;;2.31;100.00
19789;BME280;10054;59.332;18.244;2023-01-16T07:18:57;97684.30;;;2.26;100.00
19789;BME280;10054;59.332;18.244;2023-01-16T07:21:44;97687.48;;;2.24;100.00
19789;BME280;10054;59.332;18.244;2023-01-16T07:24:34;97687.27;;;2.21;100.00
19789;BME280;10054;59.332;18.244;2023-01-16T07:27:04;97692.23;;;2.19;100.00
19789;BME280;10054;59.332;18.244;2023-01-16T07:29:36;97699.92;;;2.20;100.00
19789;BME280;10054;59.332;18.244;2023-01-16T07:32:05;97700.39;;;2.20;100.00
19789;BME280;10054;59.332;18.244;2023-01-16T07:34:34;97713.75;;;2.21;100.00
19789;BME280;10054;59.332;18.244;2023-01-16T07:37:03;97720.26;;;2.21;100.00
19789;BME280;10054;59.332;18.244;2023-01-16T07:39:33;97720.61;;;2.22;100.00
19789;BME280;10054;59.332;18.244;2023-01-16T07:42:05;97726.50;;;2.24;100.00
19789;BME280;10054;59.332;18.244;2023-01-16T07:44:34;97729.45;;;2.25;100.00
19789;BME280;10054;59.332;18.244;2023-01-16T07:47:03;97734.66;;;2.25;100.00
19789;BME280;10054;59.332;18.244;2023-01-16T07:49:32;97750.52;;;2.22;100.00
19789;BME280;10054;59.332;18.244;2023-01-16T07:52:01;97755.13;;;2.18;100.00
19789;BME280;10054;59.332;18.244;2023-01-16T07:54:29;97764.34;;;2.17;100.00
19789;BME280;10054;59.332;18.244;2023-01-16T07:56:58;97771.89;;;2.14;100.00
19789;BME280;10054;59.332;18.244;2023-01-16T07:59:27;97779.45;;;2.12;100.00
19789;BME280;10054;59.332;18.244;2023-01-16T08:01:56;97784.77;;;2.10;100.00
19789;BME280;10054;59.332;18.244;2023-01-16T08:04:24;97781.09;;;2.07;100.00
19789;BME280;10054;59.332;18.244;2023-01-16T08:06:53;97791.35;;;2.03;100.00
19789;BME280;10054;59.332;18.244;2023-01-16T08:09:22;97795.47;;;2.00;100.00
19789;BME280;10054;59.332;18.244;2023-01-16T08:11:50;97811.66;;;1.98;100.00
19789;BME280;10054;59.332;18.244;2023-01-16T08:14:19;97807.98;;;1.95;100.00
19789;BME280;10054;59.332;18.244;2023-01-16T08:16:49;97815.53;;;1.92;100.00
19789;BME280;10054;59.332;18.244;2023-01-16T08:19:18;97831.84;;;1.94;100.00
19789;BME280;10054;59.332;18.244;2023-01-16T08:21:47;97834.22;;;1.97;100.00
19789;BME280;10054;59.332;18.244;2023-01-16T08:24:15;97841.66;;;1.96;100.00
19789;BME280;10054;59.332;18.244;2023-01-16T08:26:45;97843.66;;;1.93;100.00
19789;BME280;10054;59.332;18.244;2023-01-16T08:29:14;97848.34;;;1.88;100.00
19789;BME280;10054;59.332;18.244;2023-01-16T08:31:43;97862.03;;;1.84;100.00
19789;BME280;10054;59.332;18.244;2023-01-16T08:34:12;97858.35;;;1.81;100.00
19789;BME280;10054;59.332;18.244;2023-01-16T08:36:41;97868.03;;;1.79;100.00
19789;BME280;10054;59.332;18.244;2023-01-16T08:39:10;97869.91;;;1.77;100.00
19789;BME280;10054;59.332;18.244;2023-01-16T08:41:39;97880.41;;;1.76;100.00
19789;BME280;10054;59.332;18.244;2023-01-16T08:44:26;97892.94;;;1.76;100.00
19789;BME280;10054;59.332;18.244;2023-01-16T08:47:16;97905.93;;;1.76;100.00
19789;BME280;10054;59.332;18.244;2023-01-16T08:49:51;97905.93;;;1.76;100.00
19789;BME280;10054;59.332;18.244;2023-01-16T08:52:38;97902.61;;;1.74;100.00
19789;BME280;10054;59.332;18.244;2023-01-16T08:55:07;97920.44;;;1.73;100.00
19789;BME280;10054;59.332;18.244;2023-01-16T08:57:36;97914.98;;;1.71;100.00
19789;BME280;10054;59.332;18.244;2023-01-16T09:00:07;97922.42;;;1.70;100.00
19789;BME280;10054;59.332;18.244;2023-01-16T09:02:36;97927.25;;;1.69;100.00
19789;BME280;10054;59.332;18.244;2023-01-16T09:05:06;97925.70;;;1.66;100.00
19789;BME280;10054;59.332;18.244;2023-01-16T09:07:35;97927.46;;;1.65;100.00
19789;BME280;10054;59.332;18.244;2023-01-16T09:10:05;97937.39;;;1.66;100.00
19789;BME280;10054;59.332;18.244;2023-01-16T09:12:34;97943.89;;;1.66;100.00
19789;BME280;10054;59.332;18.244;2023-01-16T09:15:20;97938.07;;;1.62;100.00
19789;BME280;10054;59.332;18.244;2023-01-16T09:17:49;97951.06;;;1.62;100.00
19789;BME280;10054;59.332;18.244;2023-01-16T09:20:18;97952.00;;;1.61;100.00
19789;BME280;10054;59.332;18.244;2023-01-16T09:22:47;97952.83;;;1.62;100.00
19789;BME280;10054;59.332;18.244;2023-01-16T09:25:16;97960.05;;;1.64;100.00
19789;BME280;10054;59.332;18.244;2023-01-16T09:27:44;97972.52;;;1.72;100.00
19789;BME280;10054;59.332;18.244;2023-01-16T09:30:14;97977.77;;;1.77;100.00
19789;BME280;10054;59.332;18.244;2023-01-16T09:32:44;97986.03;;;1.77;100.00
19789;BME280;10054;59.332;18.244;2023-01-16T09:35:14;97981.41;;;1.75;100.00
19789;BME280;10054;59.332;18.244;2023-01-16T09:37:44;97984.94;;;1.74;100.00
19789;BME280;10054;59.332;18.244;2023-01-16T09:40:18;97990.24;;;1.72;100.00
19789;BME280;10054;59.332;18.244;2023-01-16T09:43:02;97996.73;;;1.72;100.00
19789;BME280;10054;59.332;18.244;2023-01-16T09:45:47;98003.13;;;1.74;100.00
19789;BME280;10054;59.332;18.244;2023-01-16T09:48:23;98009.89;;;1.76;100.00
19789;BME280;10054;59.332;18.244;2023-01-16T09:50:52;98013.69;;;1.78;100.00
19789;BME280;10054;59.332;18.244;2023-01-16T09:56:40;98020.70;;;1.83;100.00
19789;BME280;10054;59.332;18.244;2023-01-16T09:59:42;98014.72;;;1.88;100.00
19789;BME280;10054;59.332;18.244;2023-01-16T10:05:04;98027.55;;;1.96;100.00
19789;BME280;10054;59.332;18.244;2023-01-16T10:10:42;98048.77;;;2.03;100.00
19789;BME280;10054;59.332;18.244;2023-01-16T10:16:52;98036.74;;;2.08;100.00
19789;BME280;10054;59.332;18.244;2023-01-16T10:19:13;98041.73;;;2.11;100.00
19789;BME280;10054;59.332;18.244;2023-01-16T10:30:21;98060.49;;;2.21;100.00
19789;BME280;10054;59.332;18.244;2023-01-16T10:35:44;98068.67;;;2.28;100.00
19789;BME280;10054;59.332;18.244;2023-01-16T10:38:40;98085.37;;;2.31;100.00
19789;BME280;10054;59.332;18.244;2023-01-16T10:41:19;98087.39;;;2.33;100.00
19789;BME280;10054;59.332;18.244;2023-01-16T10:46:57;98099.45;;;2.47;100.00
19789;BME280;10054;59.332;18.244;2023-01-16T10:49:44;98106.61;;;2.56;100.00
19789;BME280;10054;59.332;18.244;2023-01-16T10:52:13;98104.37;;;2.57;100.00
19789;BME280;10054;59.332;18.244;2023-01-16T10:54:41;98104.37;;;2.57;100.00
19789;BME280;10054;59.332;18.244;2023-01-16T10:57:18;98113.38;;;2.58;100.00
19789;BME280;10054;59.332;18.244;2023-01-16T10:59:54;98108.67;;;2.63;100.00
19789;BME280;10054;59.332;18.244;2023-01-16T11:02:25;98110.48;;;2.69;100.00
19789;BME280;10054;59.332;18.244;2023-01-16T11:04:53;98121.27;;;2.70;100.00
19789;BME280;10054;59.332;18.244;2023-01-16T11:07:22;98125.42;;;2.72;100.00
19789;BME280;10054;59.332;18.244;2023-01-16T11:09:53;98140.46;;;2.74;100.00
19789;BME280;10054;59.332;18.244;2023-01-16T11:12:25;98138.58;;;2.76;100.00
19789;BME280;10054;59.332;18.244;2023-01-16T11:15:20;98142.02;;;2.77;100.00
19789;BME280;10054;59.332;18.244;2023-01-16T11:18:17;98144.41;;;2.80;100.00
19789;BME280;10054;59.332;18.244;2023-01-16T11:20:51;98149.14;;;2.80;100.00
19789;BME280;10054;59.332;18.244;2023-01-16T11:23:21;98158.62;;;2.81;100.00
19789;BME280;10054;59.332;18.244;2023-01-16T11:25:53;98162.41;;;2.83;100.00
19789;BME280;10054;59.332;18.244;2023-01-16T11:28:31;98175.44;;;2.83;100.00
19789;BME280;10054;59.332;18.244;2023-01-16T11:31:13;98177.09;;;2.84;100.00
19789;BME280;10054;59.332;18.244;2023-01-16T11:33:46;98176.16;;;2.85;100.00
19789;BME280;10054;59.332;18.244;2023-01-16T11:36:15;98182.97;;;2.93;100.00
19789;BME280;10054;59.332;18.244;2023-01-16T11:38:45;98187.60;;;3.01;100.00
19789;BME280;10054;59.332;18.244;2023-01-16T11:41:27;98190.20;;;3.01;100.00
19789;BME280;10054;59.332;18.244;2023-01-16T11:44:18;98193.03;;;2.97;100.00
19789;BME280;10054;59.332;18.244;2023-01-16T11:47:06;98198.84;;;2.95;100.00
19789;BME280;10054;59.332;18.244;2023-01-16T11:49:44;98210.20;;;2.94;100.00
19789;BME280;10054;59.332;18.244;2023-01-16T11:52:13;98209.84;;;2.93;100.00
19789;BME280;10054;59.332;18.244;2023-01-16T11:54:43;98213.74;;;2.93;100.00
19789;BME280;10054;59.332;18.244;2023-01-16T11:57:24;98210.31;;;2.93;100.00
19789;BME280;10054;59.332;18.244;2023-01-16T11:59:59;98209.00;;;2.93;100.00
19789;BME280;10054;59.332;18.244;2023-01-16T12:05:41;98209.27;;;2.95;100.00
19789;BME280;10054;59.332;18.244;2023-01-16T12:11:08;98225.36;;;2.95;100.00
19789;BME280;10054;59.332;18.244;2023-01-16T12:14:00;98221.81;;;2.96;100.00
19789;BME280;10054;59.332;18.244;2023-01-16T12:17:15;98228.80;;;2.95;100.00
19789;BME280;10054;59.332;18.244;2023-01-16T12:28:09;98247.86;;;2.96;100.00
19789;BME280;10054;59.332;18.244;2023-01-16T12:31:04;98253.53;;;2.95;100.00
19789;BME280;10054;59.332;18.244;2023-01-16T12:33:45;98245.36;;;2.94;100.00
19789;BME280;10054;59.332;18.244;2023-01-16T12:36:24;98254.94;;;2.94;100.00
19789;BME280;10054;59.332;18.244;2023-01-16T12:39:02;98251.87;;;2.94;100.00
19789;BME280;10054;59.332;18.244;2023-01-16T12:41:41;98255.20;;;2.96;100.00
19789;BME280;10054;59.332;18.244;2023-01-16T12:44:38;98259.59;;;3.02;100.00
19789;BME280;10054;59.332;18.244;2023-01-16T12:47:21;98265.99;;;3.03;100.00
19789;BME280;10054;59.332;18.244;2023-01-16T12:52:50;98289.38;;;2.97;100.00
19789;BME280;10054;59.332;18.244;2023-01-16T12:55:20;98295.42;;;2.98;100.00
19789;BME280;10054;59.332;18.244;2023-01-16T12:58:13;98295.56;;;2.96;100.00
19789;BME280;10054;59.332;18.244;2023-01-16T13:06:21;98308.90;;;2.92;100.00
19789;BME280;10054;59.332;18.244;2023-01-16T13:08:50;98304.73;;;2.89;100.00
19789;BME280;10054;59.332;18.244;2023-01-16T13:11:24;98314.42;;;2.87;100.00
19789;BME280;10054;59.332;18.244;2023-01-16T13:14:11;98322.70;;;2.87;100.00
19789;BME280;10054;59.332;18.244;2023-01-16T13:19:29;98328.73;;;2.87;100.00
19789;BME280;10054;59.332;18.244;2023-01-16T13:22:30;98342.70;;;2.86;100.00
19789;BME280;10054;59.332;18.244;2023-01-16T13:24:46;98357.02;;;2.86;100.00
19789;BME280;10054;59.332;18.244;2023-01-16T13:27:18;98345.77;;;2.86;100.00
19789;BME280;10054;59.332;18.244;2023-01-16T13:29:55;98365.20;;;2.87;100.00
19789;BME280;10054;59.332;18.244;2023-01-16T13:32:33;98352.84;;;2.84;100.00
19789;BME280;10054;59.332;18.244;2023-01-16T13:35:18;98365.70;;;2.80;100.00
19789;BME280;10054;59.332;18.244;2023-01-16T13:43:02;98375.59;;;2.75;100.00
19789;BME280;10054;59.332;18.244;2023-01-16T13:45:52;98371.32;;;2.74;100.00
19789;BME280;10054;59.332;18.244;2023-01-16T13:48:27;98374.86;;;2.73;100.00
19789;BME280;10054;59.332;18.244;2023-01-16T13:51:00;98384.44;;;2.72;100.00
19789;BME280;10054;59.332;18.244;2023-01-16T13:53:28;98385.11;;;2.69;100.00
19789;BME280;10054;59.332;18.244;2023-01-16T13:56:14;98390.98;;;2.65;100.00
19789;BME280;10054;59.332;18.244;2023-01-16T13:58:46;98396.76;;;2.63;100.00
19789;BME280;10054;59.332;18.244;2023-01-16T14:06:50;98411.58;;;2.55;100.00
19789;BME280;10054;59.332;18.244;2023-01-16T14:12:41;98430.39;;;2.46;100.00
19789;BME280;10054;59.332;18.244;2023-01-16T14:15:18;98428.08;;;2.42;100.00
19789;BME280;10054;59.332;18.244;2023-01-16T14:18:18;98436.18;;;2.37;100.00
19789;BME280;10054;59.332;18.244;2023-01-16T14:20:50;98451.61;;;2.33;100.00
19789;BME280;10054;59.332;18.244;2023-01-16T14:23:34;98449.20;;;2.30;100.00
19789;BME280;10054;59.332;18.244;2023-01-16T14:29:23;98467.71;;;2.25;100.00
19789;BME280;10054;59.332;18.244;2023-01-16T14:32:16;98470.63;;;2.21;100.00
19789;BME280;10054;59.332;18.244;2023-01-16T14:34:39;98473.80;;;2.19;100.00
19789;BME280;10054;59.332;18.244;2023-01-16T14:37:38;98474.91;;;2.15;100.00
19789;BME280;10054;59.332;18.244;2023-01-16T14:39:53;98473.98;;;2.16;100.00
19789;BME280;10054;59.332;18.244;2023-01-16T14:42:46;98478.20;;;2.24;100.00
19789;BME280;10054;59.332;18.244;2023-01-16T14:45:34;98477.79;;;2.17;100.00
19789;BME280;10054;59.332;18.244;2023-01-16T14:51:32;98498.15;;;2.04;100.00
19789;BME280;10054;59.332;18.244;2023-01-16T14:54:30;98502.42;;;1.97;100.00
19789;BME280;10054;59.332;18.244;2023-01-16T14:57:21;98503.91;;;1.94;100.00
19789;BME280;10054;59.332;18.244;2023-01-16T15:02:55;98509.95;;;1.88;100.00
19789;BME280;10054;59.332;18.244;2023-01-16T15:05:55;98511.72;;;1.87;100.00
19789;BME280;10054;59.332;18.244;2023-01-16T15:08:30;98518.77;;;1.85;100.00
19789;BME280;10054;59.332;18.244;2023-01-16T15:11:04;98521.92;;;1.83;100.00
19789;BME280;10054;59.332;18.244;2023-01-16T15:13:32;98525.64;;;1.79;100.00
19789;BME280;10054;59.332;18.244;2023-01-16T15:16:04;98529.63;;;1.78;100.00
19789;BME280;10054;59.332;18.244;2023-01-16T15:18:44;98529.81;;;1.75;100.00
19789;BME280;10054;59.332;18.244;2023-01-16T15:21:23;98530.83;;;1.72;100.00
19789;BME280;10054;59.332;18.244;2023-01-16T15:24:13;98540.11;;;1.69;100.00